sensor_id;sensor_type;location;lat;lon;timestamp;pressure;altitude;pressure_sealevel;temperature;humidity
19096;BME280;9680;52.520;13.332;2024-03-23T00:53:39;100547.81;;;8.74;93.96
19096;BME280;9680;52.520;13.332;2024-03-23T00:56:05;100544.41;;;8.74;93.86
19096;BME280;9680;52.520;13.332;2024-03-23T00:58:32;100537.44;;;8.74;93.35
19096;BME280;9680;52.520;13.332;2024-03-23T01:00:57;100538.44;;;8.70;93.21
19096;BME280;9680;52.520;13.332;2024-03-23T01:03:24;100544.50;;;8.71;92.91
19096;BME280;9680;52.520;13.332;2024-03-23T01:05:49;100541.22;;;8.66;92.81
19096;BME280;9680;52.520;13.332;2024-03-23T01:08:18;100543.91;;;8.63;92.67
19096;BME280;9680;52.520;13.332;2024-03-23T01:10:53;100536.19;;;8.59;92.94
19096;BME280;9680;52.520;13.332;2024-03-23T01:13:20;100532.75;;;8.59;93.04
19096;BME280;9680;52.520;13.332;2024-03-23T01:15:48;100532.88;;;8.56;93.05
19096;BME280;9680;52.520;13.332;2024-03-23T01:18:15;100538.06;;;8.56;93.13
19096;BME280;9680;52.520;13.332;2024-03-23T01:20:41;100543.97;;;8.59;93.39
19096;BME280;9680;52.520;13.332;2024-03-23T01:23:07;100524.06;;;8.60;93.43
19096;BME280;9680;52.520;13.332;2024-03-23T01:25:33;100530.94;;;8.63;93.37
19096;BME280;9680;52.520;13.332;2024-03-23T01:28:01;100526.63;;;8.62;93.06
19096;BME280;9680;52.520;13.332;2024-03-23T01:30:27;100520.44;;;8.66;93.39
19096;BME280;9680;52.520;13.332;2024-03-23T01:32:53;100516.88;;;8.68;93.72
19096;BME280;9680;52.520;13.332;2024-03-23T01:35:19;100508.88;;;8.74;93.99
19096;BME280;9680;52.520;13.332;2024-03-23T01:37:46;100498.34;;;8.79;94.31
19096;BME280;9680;52.520;13.332;2024-03-23T01:40:12;100491.28;;;8.83;93.80
19096;BME280;9680;52.520;13.332;2024-03-23T01:42:40;100479.19;;;8.82;93.56
19096;BME280;9680;52.520;13.332;2024-03-23T01:45:08;100481.88;;;8.79;93.03
19096;BME280;9680;52.520;13.332;2024-03-23T01:47:35;100475.97;;;8.75;93.15
19096;BME280;9680;52.520;13.332;2024-03-23T01:50:01;100466.31;;;8.79;93.19
19096;BME280;9680;52.520;13.332;2024-03-23T01:52:28;100472.28;;;8.81;93.02
19096;BME280;9680;52.520;13.332;2024-03-23T01:54:55;100465.41;;;8.80;93.11
19096;BME280;9680;52.520;13.332;2024-03-23T01:57:22;100470.59;;;8.80;92.98
19096;BME280;9680;52.520;13.332;2024-03-23T01:59:50;100459.19;;;8.84;93.34
19096;BME280;9680;52.520;13.332;2024-03-23T02:02:26;100458.38;;;8.83;93.35
19096;BME280;9680;52.520;13.332;2024-03-23T02:04:51;100466.09;;;8.85;93.61
19096;BME280;9680;52.520;13.332;2024-03-23T02:07:18;100460.16;;;8.81;93.31
19096;BME280;9680;52.520;13.332;2024-03-23T02:09:44;100460.09;;;8.83;93.17
19096;BME280;9680;52.520;13.332;2024-03-23T02:12:11;100463.50;;;8.85;93.57
19096;BME280;9680;52.520;13.332;2024-03-23T02:14:36;100465.16;;;8.87;93.39
19096;BME280;9680;52.520;13.332;2024-03-23T02:17:03;100463.34;;;8.89;93.36
19096;BME280;9680;52.520;13.332;2024-03-23T02:19:30;100468.66;;;8.86;92.79
19096;BME280;9680;52.520;13.332;2024-03-23T02:21:57;100459.16;;;8.85;93.50
19096;BME280;9680;52.520;13.332;2024-03-23T02:24:24;100452.31;;;8.83;93.35
19096;BME280;9680;52.520;13.332;2024-03-23T02:26:50;100451.41;;;8.84;93.56
19096;BME280;9680;52.520;13.332;2024-03-23T02:29:16;100443.59;;;8.84;93.40
19096;BME280;9680;52.520;13.332;2024-03-23T02:31:43;100439.31;;;8.83;93.42
19096;BME280;9680;52.520;13.332;2024-03-23T02:34:08;100441.13;;;8.81;93.39
19096;BME280;9680;52.520;13.332;2024-03-23T02:36:35;100428.94;;;8.83;93.69
19096;BME280;9680;52.520;13.332;2024-03-23T02:39:01;100428.03;;;8.84;93.47
19096;BME280;9680;52.520;13.332;2024-03-23T02:41:29;100417.63;;;8.84;93.33
19096;BME280;9680;52.520;13.332;2024-03-23T02:43:54;100419.34;;;8.85;93.70
19096;BME280;9680;52.520;13.332;2024-03-23T02:46:21;100414.22;;;8.83;93.85
19096;BME280;9680;52.520;13.332;2024-03-23T02:48:48;100414.13;;;8.85;94.24
19096;BME280;9680;52.520;13.332;2024-03-23T02:51:15;100411.50;;;8.86;94.24
19096;BME280;9680;52.520;13.332;2024-03-23T02:53:40;100406.22;;;8.88;94.01
19096;BME280;9680;52.520;13.332;2024-03-23T02:56:07;100407.22;;;8.85;94.06
19096;BME280;9680;52.520;13.332;2024-03-23T02:58:35;100403.13;;;8.78;93.98
19096;BME280;9680;52.520;13.332;2024-03-23T03:01:01;100405.97;;;8.72;94.03
19096;BME280;9680;52.520;13.332;2024-03-23T03:03:27;100408.88;;;8.63;94.42
19096;BME280;9680;52.520;13.332;2024-03-23T03:05:55;100411.84;;;8.52;94.99
19096;BME280;9680;52.520;13.332;2024-03-23T03:08:21;100410.16;;;8.51;95.41
19096;BME280;9680;52.520;13.332;2024-03-23T03:10:47;100410.22;;;8.48;95.61
19096;BME280;9680;52.520;13.332;2024-03-23T03:13:13;100400.84;;;8.43;95.18
19096;BME280;9680;52.520;13.332;2024-03-23T03:15:41;100395.06;;;8.35;94.99
19096;BME280;9680;52.520;13.332;2024-03-23T03:18:07;100395.34;;;8.26;95.39
19096;BME280;9680;52.520;13.332;2024-03-23T03:20:33;100393.66;;;8.25;95.68
19096;BME280;9680;52.520;13.332;2024-03-23T03:23:00;100388.38;;;8.28;96.19
19096;BME280;9680;52.520;13.332;2024-03-23T03:25:27;100395.28;;;8.29;95.69
19096;BME280;9680;52.520;13.332;2024-03-23T03:27:52;100391.25;;;8.20;95.34
19096;BME280;9680;52.520;13.332;2024-03-23T03:30:19;100383.50;;;8.19;95.68
19096;BME280;9680;52.520;13.332;2024-03-23T03:32:46;100376.03;;;8.09;95.38
19096;BME280;9680;52.520;13.332;2024-03-23T03:35:12;100373.69;;;8.01;95.85
19096;BME280;9680;52.520;13.332;2024-03-23T03:37:38;100365.75;;;8.06;96.15
19096;BME280;9680;52.520;13.332;2024-03-23T03:40:06;100366.72;;;8.04;96.51
19096;BME280;9680;52.520;13.332;2024-03-23T03:42:34;100365.16;;;7.98;96.07
19096;BME280;9680;52.520;13.332;2024-03-23T03:45:01;100366.13;;;7.95;96.21
19096;BME280;9680;52.520;13.332;2024-03-23T03:47:26;100368.66;;;7.97;96.79
19096;BME280;9680;52.520;13.332;2024-03-23T03:49:54;100369.53;;;7.97;96.91
19096;BME280;9680;52.520;13.332;2024-03-23T03:52:20;100368.75;;;7.94;96.74
19096;BME280;9680;52.520;13.332;2024-03-23T03:54:46;100358.50;;;7.89;96.15
19096;BME280;9680;52.520;13.332;2024-03-23T03:57:12;100364.81;;;7.82;96.19
19096;BME280;9680;52.520;13.332;2024-03-23T03:59:39;100351.03;;;7.80;96.29
19096;BME280;9680;52.520;13.332;2024-03-23T04:02:04;100346.72;;;7.80;96.42
19096;BME280;9680;52.520;13.332;2024-03-23T04:04:31;100353.53;;;7.83;95.90
19096;BME280;9680;52.520;13.332;2024-03-23T04:07:02;100347.63;;;7.79;94.98
19096;BME280;9680;52.520;13.332;2024-03-23T04:09:30;100331.59;;;7.66;94.46
19096;BME280;9680;52.520;13.332;2024-03-23T04:11:56;100337.69;;;7.65;94.61
19096;BME280;9680;52.520;13.332;2024-03-23T04:14:22;100349.94;;;7.60;93.97
19096;BME280;9680;52.520;13.332;2024-03-23T04:16:48;100352.88;;;7.49;93.16
19096;BME280;9680;52.520;13.332;2024-03-23T04:19:15;100349.66;;;7.41;93.25
19096;BME280;9680;52.520;13.332;2024-03-23T04:21:40;100354.94;;;7.38;92.75
19096;BME280;9680;52.520;13.332;2024-03-23T04:24:08;100355.19;;;7.30;92.95
19096;BME280;9680;52.520;13.332;2024-03-23T04:26:40;100352.06;;;7.19;91.65
19096;BME280;9680;52.520;13.332;2024-03-23T04:29:07;100350.72;;;7.05;91.55
19096;BME280;9680;52.520;13.332;2024-03-23T04:31:32;100353.50;;;6.99;92.19
19096;BME280;9680;52.520;13.332;2024-03-23T04:34:00;100345.03;;;6.94;92.72
19096;BME280;9680;52.520;13.332;2024-03-23T04:36:25;100335.50;;;6.94;93.62
19096;BME280;9680;52.520;13.332;2024-03-23T04:38:52;100334.56;;;6.98;93.91
19096;BME280;9680;52.520;13.332;2024-03-23T04:41:20;100319.81;;;7.01;94.48
19096;BME280;9680;52.520;13.332;2024-03-23T04:43:46;100329.03;;;7.09;95.10
19096;BME280;9680;52.520;13.332;2024-03-23T04:46:13;100323.63;;;7.17;95.56
19096;BME280;9680;52.520;13.332;2024-03-23T04:48:40;100314.06;;;7.19;95.77
19096;BME280;9680;52.520;13.332;2024-03-23T04:51:09;100303.69;;;7.19;95.22
19096;BME280;9680;52.520;13.332;2024-03-23T04:53:37;100306.19;;;7.22;95.51
19096;BME280;9680;52.520;13.332;2024-03-23T04:56:04;100308.63;;;7.27;95.91
19096;BME280;9680;52.520;13.332;2024-03-23T04:58:31;100302.50;;;7.31;95.92
19096;BME280;9680;52.520;13.332;2024-03-23T05:00:57;100303.19;;;7.36;95.97
19096;BME280;9680;52.520;13.332;2024-03-23T05:03:23;100301.28;;;7.41;96.02
19096;BME280;9680;52.520;13.332;2024-03-23T05:05:50;100306.38;;;7.45;96.12
19096;BME280;9680;52.520;13.332;2024-03-23T05:08:16;100306.38;;;7.45;96.18
19096;BME280;9680;52.520;13.332;2024-03-23T05:10:43;100311.38;;;7.51;96.62
19096;BME280;9680;52.520;13.332;2024-03-23T05:13:08;100295.72;;;7.54;96.70
19096;BME280;9680;52.520;13.332;2024-03-23T05:15:36;100293.94;;;7.54;96.64
19096;BME280;9680;52.520;13.332;2024-03-23T05:18:02;100298.19;;;7.57;96.37
19096;BME280;9680;52.520;13.332;2024-03-23T05:20:30;100286.94;;;7.58;96.38
19096;BME280;9680;52.520;13.332;2024-03-23T05:22:56;100288.56;;;7.61;96.99
19096;BME280;9680;52.520;13.332;2024-03-23T05:25:23;100284.34;;;7.58;96.51
19096;BME280;9680;52.520;13.332;2024-03-23T05:27:48;100278.16;;;7.62;96.85
19096;BME280;9680;52.520;13.332;2024-03-23T05:30:15;100280.63;;;7.67;96.56
19096;BME280;9680;52.520;13.332;2024-03-23T05:32:42;100274.53;;;7.68;96.10
19096;BME280;9680;52.520;13.332;2024-03-23T05:35:10;100278.81;;;7.69;96.24
19096;BME280;9680;52.520;13.332;2024-03-23T05:37:35;100276.13;;;7.72;96.32
19096;BME280;9680;52.520;13.332;2024-03-23T05:40:03;100270.03;;;7.73;96.58
19096;BME280;9680;52.520;13.332;2024-03-23T05:42:29;100270.94;;;7.72;96.31
19096;BME280;9680;52.520;13.332;2024-03-23T05:44:56;100251.81;;;7.75;96.55
19096;BME280;9680;52.520;13.332;2024-03-23T05:47:21;100248.38;;;7.74;95.75
19096;BME280;9680;52.520;13.332;2024-03-23T05:49:49;100249.78;;;7.57;94.18
19096;BME280;9680;52.520;13.332;2024-03-23T05:52:17;100247.28;;;7.54;94.40
19096;BME280;9680;52.520;13.332;2024-03-23T05:54:46;100238.63;;;7.55;94.15
19096;BME280;9680;52.520;13.332;2024-03-23T05:57:11;100242.06;;;7.56;94.33
19096;BME280;9680;52.520;13.332;2024-03-23T05:59:38;100245.38;;;7.60;93.77
19096;BME280;9680;52.520;13.332;2024-03-23T06:02:04;100241.91;;;7.61;93.84
19096;BME280;9680;52.520;13.332;2024-03-23T06:04:31;100235.19;;;7.55;92.50
19096;BME280;9680;52.520;13.332;2024-03-23T06:06:58;100225.94;;;7.48;92.40
19096;BME280;9680;52.520;13.332;2024-03-23T06:09:25;100215.59;;;7.46;92.29
19096;BME280;9680;52.520;13.332;2024-03-23T06:11:51;100222.38;;;7.50;92.74
19096;BME280;9680;52.520;13.332;2024-03-23T06:14:17;100220.69;;;7.49;92.13
19096;BME280;9680;52.520;13.332;2024-03-23T06:16:43;100214.81;;;7.44;91.97
19096;BME280;9680;52.520;13.332;2024-03-23T06:19:09;100216.59;;;7.42;91.60
19096;BME280;9680;52.520;13.332;2024-03-23T06:21:35;100213.28;;;7.38;91.82
19096;BME280;9680;52.520;13.332;2024-03-23T06:24:04;100203.84;;;7.36;91.81
19096;BME280;9680;52.520;13.332;2024-03-23T06:26:29;100205.53;;;7.37;91.84
19096;BME280;9680;52.520;13.332;2024-03-23T06:28:56;100205.50;;;7.38;92.29
19096;BME280;9680;52.520;13.332;2024-03-23T06:31:22;100207.09;;;7.42;91.84
19096;BME280;9680;52.520;13.332;2024-03-23T06:33:48;100198.47;;;7.42;91.72
19096;BME280;9680;52.520;13.332;2024-03-23T06:36:14;100209.72;;;7.41;91.63
19096;BME280;9680;52.520;13.332;2024-03-23T06:38:40;100204.34;;;7.47;91.52
19096;BME280;9680;52.520;13.332;2024-03-23T06:41:08;100200.94;;;7.45;90.95
19096;BME280;9680;52.520;13.332;2024-03-23T06:43:35;100191.34;;;7.49;91.14
19096;BME280;9680;52.520;13.332;2024-03-23T06:46:02;100185.38;;;7.47;91.44
19096;BME280;9680;52.520;13.332;2024-03-23T06:48:29;100180.13;;;7.48;91.65
19096;BME280;9680;52.520;13.332;2024-03-23T06:50:56;100180.88;;;7.52;91.55
19096;BME280;9680;52.520;13.332;2024-03-23T06:53:23;100175.63;;;7.53;91.25
19096;BME280;9680;52.520;13.332;2024-03-23T06:55:50;100179.16;;;7.51;90.46
19096;BME280;9680;52.520;13.332;2024-03-23T06:58:20;100174.00;;;7.51;90.34
19096;BME280;9680;52.520;13.332;2024-03-23T07:00:46;100176.50;;;7.52;90.53
19096;BME280;9680;52.520;13.332;2024-03-23T07:03:12;100174.72;;;7.54;90.42
19096;BME280;9680;52.520;13.332;2024-03-23T07:05:38;100165.31;;;7.52;90.11
19096;BME280;9680;52.520;13.332;2024-03-23T07:08:05;100167.00;;;7.53;90.39
19096;BME280;9680;52.520;13.332;2024-03-23T07:10:31;100170.53;;;7.50;90.71
19096;BME280;9680;52.520;13.332;2024-03-23T07:12:58;100163.56;;;7.52;90.93
19096;BME280;9680;52.520;13.332;2024-03-23T07:15:25;100164.31;;;7.56;90.87
19096;BME280;9680;52.520;13.332;2024-03-23T07:17:52;100173.72;;;7.58;90.68
19096;BME280;9680;52.520;13.332;2024-03-23T07:20:17;100165.09;;;7.58;90.40
19096;BME280;9680;52.520;13.332;2024-03-23T07:22:45;100170.44;;;7.53;90.23
19096;BME280;9680;52.520;13.332;2024-03-23T07:25:12;100161.94;;;7.50;90.28
19096;BME280;9680;52.520;13.332;2024-03-23T07:27:39;100165.03;;;7.60;90.80
19096;BME280;9680;52.520;13.332;2024-03-23T07:30:06;100155.19;;;7.69;90.91
19096;BME280;9680;52.520;13.332;2024-03-23T07:32:35;100149.34;;;7.88;90.10
19096;BME280;9680;52.520;13.332;2024-03-23T07:35:01;100156.75;;;7.99;89.50
19096;BME280;9680;52.520;13.332;2024-03-23T07:37:28;100158.22;;;8.06;87.91
19096;BME280;9680;52.520;13.332;2024-03-23T07:39:54;100158.41;;;8.01;87.46
19096;BME280;9680;52.520;13.332;2024-03-23T07:42:20;100145.34;;;8.03;87.13
19096;BME280;9680;52.520;13.332;2024-03-23T07:44:46;100151.44;;;8.02;86.85
19096;BME280;9680;52.520;13.332;2024-03-23T07:47:13;100149.19;;;7.93;86.83
19096;BME280;9680;52.520;13.332;2024-03-23T07:49:40;100144.84;;;7.93;86.64
19096;BME280;9680;52.520;13.332;2024-03-23T07:52:06;100140.28;;;7.76;85.77
19096;BME280;9680;52.520;13.332;2024-03-23T07:54:33;100138.97;;;7.64;86.44
19096;BME280;9680;52.520;13.332;2024-03-23T07:57:00;100138.22;;;7.61;86.53
19096;BME280;9680;52.520;13.332;2024-03-23T07:59:26;100129.63;;;7.58;87.22
19096;BME280;9680;52.520;13.332;2024-03-23T08:01:53;100142.72;;;7.55;87.87
19096;BME280;9680;52.520;13.332;2024-03-23T08:04:19;100146.28;;;7.53;87.75
19096;BME280;9680;52.520;13.332;2024-03-23T08:06:47;100146.16;;;7.31;87.67
19096;BME280;9680;52.520;13.332;2024-03-23T08:09:13;100140.00;;;7.08;89.76
19096;BME280;9680;52.520;13.332;2024-03-23T08:11:40;100139.28;;;6.76;94.00
19096;BME280;9680;52.520;13.332;2024-03-23T08:14:05;100140.28;;;6.43;95.19
19096;BME280;9680;52.520;13.332;2024-03-23T08:16:32;100131.00;;;6.36;96.50
19096;BME280;9680;52.520;13.332;2024-03-23T08:18:59;100143.25;;;6.31;96.94
19096;BME280;9680;52.520;13.332;2024-03-23T08:21:25;100133.81;;;6.28;97.25
19096;BME280;9680;52.520;13.332;2024-03-23T08:23:53;100132.06;;;6.30;96.78
19096;BME280;9680;52.520;13.332;2024-03-23T08:26:19;100124.81;;;6.11;95.67
19096;BME280;9680;52.520;13.332;2024-03-23T08:28:45;100131.31;;;5.95;95.94
19096;BME280;9680;52.520;13.332;2024-03-23T08:31:13;100127.91;;;5.93;96.90
19096;BME280;9680;52.520;13.332;2024-03-23T08:33:40;100126.94;;;5.97;95.42
19096;BME280;9680;52.520;13.332;2024-03-23T08:36:09;100128.75;;;5.93;95.39
19096;BME280;9680;52.520;13.332;2024-03-23T08:38:39;100133.25;;;5.87;96.79
19096;BME280;9680;52.520;13.332;2024-03-23T08:41:09;100128.03;;;5.88;97.29
19096;BME280;9680;52.520;13.332;2024-03-23T08:43:37;100131.56;;;5.86;97.31
19096;BME280;9680;52.520;13.332;2024-03-23T08:46:04;100134.34;;;5.79;96.82
19096;BME280;9680;52.520;13.332;2024-03-23T08:48:31;100125.81;;;5.76;96.74
19096;BME280;9680;52.520;13.332;2024-03-23T08:51:00;100137.19;;;5.70;96.73
19096;BME280;9680;52.520;13.332;2024-03-23T08:53:27;100136.59;;;5.59;97.17
19096;BME280;9680;52.520;13.332;2024-03-23T08:55:54;100142.56;;;5.61;97.95
19096;BME280;9680;52.520;13.332;2024-03-23T08:58:20;100134.69;;;5.65;98.57
19096;BME280;9680;52.520;13.332;2024-03-23T09:00:47;100130.44;;;5.63;98.40
19096;BME280;9680;52.520;13.332;2024-03-23T09:03:13;100133.91;;;5.63;98.55
19096;BME280;9680;52.520;13.332;2024-03-23T09:05:39;100138.34;;;5.58;98.91
19096;BME280;9680;52.520;13.332;2024-03-23T09:08:06;100148.13;;;5.47;98.54
19096;BME280;9680;52.520;13.332;2024-03-23T09:10:37;100140.91;;;5.25;99.87
19096;BME280;9680;52.520;13.332;2024-03-23T09:13:03;100151.53;;;5.13;100.00
19096;BME280;9680;52.520;13.332;2024-03-23T09:15:32;100146.63;;;5.03;100.00
19096;BME280;9680;52.520;13.332;2024-03-23T09:17:58;100145.06;;;4.96;100.00
19096;BME280;9680;52.520;13.332;2024-03-23T09:20:25;100155.75;;;4.80;100.00
19096;BME280;9680;52.520;13.332;2024-03-23T09:22:51;100159.31;;;4.75;100.00
19096;BME280;9680;52.520;13.332;2024-03-23T09:25:17;100160.28;;;4.71;100.00
19096;BME280;9680;52.520;13.332;2024-03-23T09:27:45;100163.59;;;4.76;100.00
19096;BME280;9680;52.520;13.332;2024-03-23T09:30:13;100160.06;;;4.80;100.00
19096;BME280;9680;52.520;13.332;2024-03-23T09:32:42;100147.13;;;4.81;100.00
19096;BME280;9680;52.520;13.332;2024-03-23T09:35:08;100157.16;;;4.94;100.00
19096;BME280;9680;52.520;13.332;2024-03-23T09:37:34;100160.72;;;4.90;100.00
19096;BME280;9680;52.520;13.332;2024-03-23T09:40:01;100162.09;;;5.03;100.00
19096;BME280;9680;52.520;13.332;2024-03-23T09:42:26;100151.69;;;5.06;100.00
19096;BME280;9680;52.520;13.332;2024-03-23T09:44:54;100169.03;;;5.01;100.00
19096;BME280;9680;52.520;13.332;2024-03-23T09:47:23;100167.09;;;5.11;100.00
19096;BME280;9680;52.520;13.332;2024-03-23T09:49:52;100163.06;;;4.99;99.73
19096;BME280;9680;52.520;13.332;2024-03-23T09:52:18;100169.03;;;5.01;100.00
19096;BME280;9680;52.520;13.332;2024-03-23T09:54:45;100174.19;;;5.03;99.94
19096;BME280;9680;52.520;13.332;2024-03-23T09:57:10;100182.88;;;4.99;99.22
19096;BME280;9680;52.520;13.332;2024-03-23T09:59:37;100190.78;;;4.91;97.68
19096;BME280;9680;52.520;13.332;2024-03-23T10:02:04;100187.75;;;4.73;100.00
19096;BME280;9680;52.520;13.332;2024-03-23T10:04:37;100196.41;;;4.71;100.00
19096;BME280;9680;52.520;13.332;2024-03-23T10:07:12;100220.50;;;4.71;100.00
19096;BME280;9680;52.520;13.332;2024-03-23T10:09:39;100216.44;;;4.59;99.95
19096;BME280;9680;52.520;13.332;2024-03-23T10:12:09;100217.38;;;4.55;99.72
19096;BME280;9680;52.520;13.332;2024-03-23T10:14:36;100229.41;;;4.55;98.71
19096;BME280;9680;52.520;13.332;2024-03-23T10:17:15;100227.66;;;4.57;97.80
19096;BME280;9680;52.520;13.332;2024-03-23T10:19:43;100231.03;;;4.60;97.06
19096;BME280;9680;52.520;13.332;2024-03-23T10:22:09;100224.13;;;4.61;96.36
19096;BME280;9680;52.520;13.332;2024-03-23T10:24:37;100226.63;;;4.65;96.58
19096;BME280;9680;52.520;13.332;2024-03-23T10:27:03;100236.66;;;4.79;97.06
19096;BME280;9680;52.520;13.332;2024-03-23T10:29:30;100238.09;;;4.91;97.36
19096;BME280;9680;52.520;13.332;2024-03-23T10:32:07;100238.00;;;4.96;96.38
19096;BME280;9680;52.520;13.332;2024-03-23T10:34:34;100226.69;;;5.02;94.91
19096;BME280;9680;52.520;13.332;2024-03-23T10:37:01;100240.56;;;4.98;96.09
19096;BME280;9680;52.520;13.332;2024-03-23T10:39:30;100237.66;;;5.12;96.68
19096;BME280;9680;52.520;13.332;2024-03-23T10:42:00;100228.84;;;5.20;96.43
19096;BME280;9680;52.520;13.332;2024-03-23T10:44:28;100238.94;;;5.31;97.00
19096;BME280;9680;52.520;13.332;2024-03-23T10:46:56;100235.03;;;5.49;96.16
19096;BME280;9680;52.520;13.332;2024-03-23T10:49:26;100233.97;;;5.57;96.95
19096;BME280;9680;52.520;13.332;2024-03-23T10:51:52;100225.94;;;5.69;97.04
19096;BME280;9680;52.520;13.332;2024-03-23T10:54:19;100234.00;;;5.90;97.51
19096;BME280;9680;52.520;13.332;2024-03-23T10:56:46;100231.97;;;6.03;96.92
19096;BME280;9680;52.520;13.332;2024-03-23T10:59:20;100228.19;;;6.15;96.61
19096;BME280;9680;52.520;13.332;2024-03-23T11:01:56;100228.25;;;6.13;93.77
19096;BME280;9680;52.520;13.332;2024-03-23T11:04:30;100234.00;;;6.23;93.83
19096;BME280;9680;52.520;13.332;2024-03-23T11:06:56;100231.72;;;6.44;94.46
19096;BME280;9680;52.520;13.332;2024-03-23T11:09:39;100232.41;;;6.49;92.59
19096;BME280;9680;52.520;13.332;2024-03-23T11:12:18;100238.53;;;6.46;90.53
19096;BME280;9680;52.520;13.332;2024-03-23T11:14:54;100228.53;;;6.64;92.06
19096;BME280;9680;52.520;13.332;2024-03-23T11:17:20;100227.59;;;6.66;87.45
19096;BME280;9680;52.520;13.332;2024-03-23T11:19:53;100228.09;;;6.78;87.53
19096;BME280;9680;52.520;13.332;2024-03-23T11:22:43;100235.38;;;6.95;87.08
19096;BME280;9680;52.520;13.332;2024-03-23T11:25:16;100232.66;;;6.99;86.27
19096;BME280;9680;52.520;13.332;2024-03-23T11:27:43;100229.56;;;7.15;87.33
19096;BME280;9680;52.520;13.332;2024-03-23T11:30:14;100225.25;;;7.42;87.80
19096;BME280;9680;52.520;13.332;2024-03-23T11:32:41;100229.44;;;7.72;87.61
19096;BME280;9680;52.520;13.332;2024-03-23T11:35:09;100236.38;;;7.97;87.41
19096;BME280;9680;52.520;13.332;2024-03-23T11:37:36;100242.59;;;8.16;86.46
19096;BME280;9680;52.520;13.332;2024-03-23T11:40:18;100238.38;;;8.38;85.25
19096;BME280;9680;52.520;13.332;2024-03-23T11:42:43;100236.69;;;8.60;85.31
19096;BME280;9680;52.520;13.332;2024-03-23T11:45:13;100229.91;;;8.80;83.69
19096;BME280;9680;52.520;13.332;2024-03-23T11:47:39;100243.88;;;9.00;83.67
19096;BME280;9680;52.520;13.332;2024-03-23T11:50:06;100236.44;;;9.35;83.28
19096;BME280;9680;52.520;13.332;2024-03-23T11:52:32;100243.97;;;9.62;81.73
19096;BME280;9680;52.520;13.332;2024-03-23T11:55:05;100251.38;;;9.71;80.69
19096;BME280;9680;52.520;13.332;2024-03-23T11:57:33;100248.75;;;9.73;79.16
19096;BME280;9680;52.520;13.332;2024-03-23T12:00:00;100249.75;;;9.48;77.48
19096;BME280;9680;52.520;13.332;2024-03-23T12:02:27;100256.88;;;9.43;78.19
19096;BME280;9680;52.520;13.332;2024-03-23T12:04:54;100255.44;;;9.36;78.25
19096;BME280;9680;52.520;13.332;2024-03-23T12:07:20;100257.69;;;9.23;78.03
19096;BME280;9680;52.520;13.332;2024-03-23T12:10:01;100252.28;;;9.29;78.54
19096;BME280;9680;52.520;13.332;2024-03-23T12:12:28;100244.28;;;9.33;78.57
19096;BME280;9680;52.520;13.332;2024-03-23T12:15:03;100243.09;;;9.20;78.44
19096;BME280;9680;52.520;13.332;2024-03-23T12:17:30;100242.00;;;9.03;78.55
19096;BME280;9680;52.520;13.332;2024-03-23T12:19:57;100238.75;;;8.98;79.55
19096;BME280;9680;52.520;13.332;2024-03-23T12:22:23;100239.06;;;8.89;79.86
19096;BME280;9680;52.520;13.332;2024-03-23T12:24:51;100244.38;;;8.86;79.59
19096;BME280;9680;52.520;13.332;2024-03-23T12:27:17;100242.19;;;8.99;79.39
19096;BME280;9680;52.520;13.332;2024-03-23T12:29:43;100240.84;;;9.11;79.01
19096;BME280;9680;52.520;13.332;2024-03-23T12:32:11;100223.47;;;9.33;79.46
19096;BME280;9680;52.520;13.332;2024-03-23T12:34:40;100230.50;;;9.52;78.75
19096;BME280;9680;52.520;13.332;2024-03-23T12:37:05;100232.34;;;9.71;78.04
19096;BME280;9680;52.520;13.332;2024-03-23T12:39:32;100229.53;;;9.75;77.19
19096;BME280;9680;52.520;13.332;2024-03-23T12:41:58;100225.97;;;9.78;76.96
19096;BME280;9680;52.520;13.332;2024-03-23T12:44:24;100227.25;;;9.88;77.13
19096;BME280;9680;52.520;13.332;2024-03-23T12:46:50;100228.41;;;10.02;76.81
19096;BME280;9680;52.520;13.332;2024-03-23T12:49:16;100223.84;;;10.07;75.03
19096;BME280;9680;52.520;13.332;2024-03-23T12:51:49;100228.31;;;9.84;73.37
19096;BME280;9680;52.520;13.332;2024-03-23T12:54:19;100219.50;;;9.87;74.44
19096;BME280;9680;52.520;13.332;2024-03-23T12:56:45;100224.41;;;9.95;73.66
19096;BME280;9680;52.520;13.332;2024-03-23T12:59:12;100219.38;;;10.11;74.07
19096;BME280;9680;52.520;13.332;2024-03-23T13:01:38;100220.50;;;10.24;73.83
19096;BME280;9680;52.520;13.332;2024-03-23T13:04:04;100213.91;;;10.36;73.22
19096;BME280;9680;52.520;13.332;2024-03-23T13:06:30;100223.13;;;10.24;72.51
19096;BME280;9680;52.520;13.332;2024-03-23T13:09:00;100221.97;;;10.11;72.88
19096;BME280;9680;52.520;13.332;2024-03-23T13:11:26;100213.81;;;9.99;73.04
19096;BME280;9680;52.520;13.332;2024-03-23T13:13:53;100221.59;;;9.99;73.74
19096;BME280;9680;52.520;13.332;2024-03-23T13:16:19;100225.91;;;10.19;74.39
19096;BME280;9680;52.520;13.332;2024-03-23T13:18:45;100225.63;;;10.46;73.99
19096;BME280;9680;52.520;13.332;2024-03-23T13:21:11;100217.59;;;10.70;73.30
19096;BME280;9680;52.520;13.332;2024-03-23T13:23:37;100213.13;;;10.91;72.79
19096;BME280;9680;52.520;13.332;2024-03-23T13:26:06;100201.34;;;11.02;72.25
19096;BME280;9680;52.520;13.332;2024-03-23T13:28:33;100203.31;;;10.97;71.04
19096;BME280;9680;52.520;13.332;2024-03-23T13:30:59;100203.53;;;10.92;71.10
19096;BME280;9680;52.520;13.332;2024-03-23T13:33:29;100203.06;;;10.84;70.85
19096;BME280;9680;52.520;13.332;2024-03-23T13:35:55;100192.44;;;10.69;70.48
19096;BME280;9680;52.520;13.332;2024-03-23T13:38:22;100204.03;;;10.63;71.44
19096;BME280;9680;52.520;13.332;2024-03-23T13:40:52;100199.91;;;10.77;71.17
19096;BME280;9680;52.520;13.332;2024-03-23T13:43:20;100193.97;;;10.92;70.77
19096;BME280;9680;52.520;13.332;2024-03-23T13:45:47;100202.50;;;11.14;69.95
19096;BME280;9680;52.520;13.332;2024-03-23T13:48:14;100195.44;;;11.51;69.70
19096;BME280;9680;52.520;13.332;2024-03-23T13:50:40;100199.47;;;11.92;67.44
19096;BME280;9680;52.520;13.332;2024-03-23T13:53:06;100205.19;;;12.16;65.92